<?xml version='1.0' encoding='UTF-8'?>
<gpx xmlns="http://www.topografix.com/GPX/1/1" creator="www.balnam.be" version="1.1" xmlns:xsi="http://www.w3.org/2001/XMLSchema-instance" xsi:schemaLocation="http://www.topografix.com/GPX/1/1 http://www.topografix.com/GPX/1/1/gpx.xsd">
<trk>
<name>ljuvl1</name>
<cmt>r</cmt>
<desc>Voroux-lez-Liers Chemin n°1 Rue Vieille Voie de Tongres / Rue des Pinsons / Chemin du Puits Borguet</desc>
<link href="https://chemins.be/vorouxlezliers/chemin/1"/><trkseg>
<trkpt lat="50.688477" lon="5.555619"><time>2026-05-04T15:16:01Z</time></trkpt>
<trkpt lat="50.692329" lon="5.553437"><time>2026-05-04T15:26:01Z</time></trkpt>
</trkseg></trk>
<trk>
<name>ljuvl1</name>
<cmt>v</cmt>
<desc>Voroux-lez-Liers Chemin n°1 Rue Vieille Voie de Tongres / Rue des Pinsons / Chemin du Puits Borguet</desc>
<link href="https://chemins.be/vorouxlezliers/chemin/1"/><trkseg>
<trkpt lat="50.692329" lon="5.553437"><time>2026-05-04T15:26:01Z</time></trkpt>
<trkpt lat="50.693756" lon="5.552375"><time>2026-05-04T15:36:01Z</time></trkpt>
<trkpt lat="50.695237" lon="5.551273"><time>2026-05-04T15:46:01Z</time></trkpt>
<trkpt lat="50.697169" lon="5.549609"><time>2026-05-04T15:56:01Z</time></trkpt>
<trkpt lat="50.698340" lon="5.547614"><time>2026-05-04T16:06:01Z</time></trkpt>
<trkpt lat="50.699567" lon="5.546423"><time>2026-05-04T16:16:01Z</time></trkpt>
</trkseg>
</trk>
<trk>
<name>ljuvl10</name>
<cmt>r</cmt>
<desc>Voroux-lez-Liers Chemin n°10 Ruelle du Bois</desc>
<link href="https://chemins.be/vorouxlezliers/chemin/10"/><trkseg>
<trkpt lat="50.689485" lon="5.557244"><time>2026-05-04T15:16:01Z</time></trkpt>
<trkpt lat="50.688850" lon="5.557794"><time>2026-05-04T15:26:01Z</time></trkpt>
</trkseg></trk>
<trk>
<name>ljuvl10</name>
<cmt>v</cmt>
<desc>Voroux-lez-Liers Chemin n°10 Ruelle du Bois</desc>
<link href="https://chemins.be/vorouxlezliers/chemin/10"/><trkseg>
<trkpt lat="50.688850" lon="5.557794"><time>2026-05-04T15:26:01Z</time></trkpt>
<trkpt lat="50.687699" lon="5.558071"><time>2026-05-04T15:36:01Z</time></trkpt>
<trkpt lat="50.686224" lon="5.558704"><time>2026-05-04T15:46:01Z</time></trkpt>
</trkseg>
</trk>
<trk>
<name>ljuvl11</name>
<cmt>d</cmt>
<desc>Voroux-lez-Liers Sentier n°11 Rue Vieille Voie de Tongres</desc>
<link href="https://chemins.be/vorouxlezliers/sentier/11"/><trkseg>
<trkpt lat="50.688020" lon="5.543831"><time>2026-05-04T15:16:01Z</time></trkpt>
<trkpt lat="50.689066" lon="5.546942"><time>2026-05-04T15:26:01Z</time></trkpt>
<trkpt lat="50.689209" lon="5.548133"><time>2026-05-04T15:36:01Z</time></trkpt>
<trkpt lat="50.689652" lon="5.549590"><time>2026-05-04T15:46:01Z</time></trkpt>
</trkseg></trk>
<trk>
<name>ljuvl11</name>
<cmt>b</cmt>
<desc>Voroux-lez-Liers Sentier n°11 Rue Vieille Voie de Tongres</desc>
<link href="https://chemins.be/vorouxlezliers/sentier/11"/><trkseg>
<trkpt lat="50.689652" lon="5.549590"><time>2026-05-04T15:46:01Z</time></trkpt>
<trkpt lat="50.689846" lon="5.550302"><time>2026-05-04T15:56:01Z</time></trkpt>
<trkpt lat="50.689846" lon="5.550581"><time>2026-05-04T16:06:01Z</time></trkpt>
</trkseg></trk>
<trk>
<name>ljuvl11</name>
<cmt>d</cmt>
<desc>Voroux-lez-Liers Sentier n°11 Rue Vieille Voie de Tongres</desc>
<link href="https://chemins.be/vorouxlezliers/sentier/11"/><trkseg>
<trkpt lat="50.689846" lon="5.550581"><time>2026-05-04T16:06:01Z</time></trkpt>
<trkpt lat="50.689773" lon="5.552081"><time>2026-05-04T16:16:01Z</time></trkpt>
<trkpt lat="50.690677" lon="5.553820"><time>2026-05-04T16:26:01Z</time></trkpt>
<trkpt lat="50.690788" lon="5.554364"><time>2026-05-04T16:36:01Z</time></trkpt>
</trkseg></trk>
<trk>
<name>ljuvl11</name>
<cmt>r</cmt>
<desc>Voroux-lez-Liers Sentier n°11 Rue Vieille Voie de Tongres</desc>
<link href="https://chemins.be/vorouxlezliers/sentier/11"/><trkseg>
<trkpt lat="50.690788" lon="5.554364"><time>2026-05-04T16:36:01Z</time></trkpt>
<trkpt lat="50.690527" lon="5.554552"><time>2026-05-04T16:46:01Z</time></trkpt>
</trkseg></trk>
<trk>
<name>ljuvl11</name>
<cmt>b</cmt>
<desc>Voroux-lez-Liers Sentier n°11 Rue Vieille Voie de Tongres</desc>
<link href="https://chemins.be/vorouxlezliers/sentier/11"/><trkseg>
<trkpt lat="50.690527" lon="5.554552"><time>2026-05-04T16:46:01Z</time></trkpt>
<trkpt lat="50.691114" lon="5.555285"><time>2026-05-04T16:56:01Z</time></trkpt>
<trkpt lat="50.690912" lon="5.555663"><time>2026-05-04T17:06:01Z</time></trkpt>
<trkpt lat="50.690727" lon="5.556011"><time>2026-05-04T17:16:01Z</time></trkpt>
<trkpt lat="50.690705" lon="5.557221"><time>2026-05-04T17:26:01Z</time></trkpt>
<trkpt lat="50.690473" lon="5.558369"><time>2026-05-04T17:36:01Z</time></trkpt>
</trkseg>
</trk>
<trk>
<name>ljuvl12</name>
<cmt>v</cmt>
<desc>Voroux-lez-Liers Sentier n°12 </desc>
<link href="https://chemins.be/vorouxlezliers/sentier/12"/><trkseg>
<trkpt lat="50.687945" lon="5.542704"><time>2026-05-04T15:16:01Z</time></trkpt>
<trkpt lat="50.686720" lon="5.544536"><time>2026-05-04T15:26:01Z</time></trkpt>
</trkseg></trk>
<trk>
<name>ljuvl12</name>
<cmt>q</cmt>
<desc>Voroux-lez-Liers Sentier n°12 </desc>
<link href="https://chemins.be/vorouxlezliers/sentier/12"/><trkseg>
<trkpt lat="50.686720" lon="5.544536"><time>2026-05-04T15:26:01Z</time></trkpt>
<trkpt lat="50.686191" lon="5.545408"><time>2026-05-04T15:36:01Z</time></trkpt>
</trkseg>
</trk>
<trk>
<name>ljuvl13</name>
<cmt>d</cmt>
<desc>Voroux-lez-Liers Sentier n°13 </desc>
<link href="https://chemins.be/vorouxlezliers/sentier/13"/><trkseg>
<trkpt lat="50.686280" lon="5.558700"><time>2026-05-04T15:16:01Z</time></trkpt>
<trkpt lat="50.687221" lon="5.560442"><time>2026-05-04T15:26:01Z</time></trkpt>
<trkpt lat="50.687727" lon="5.561395"><time>2026-05-04T15:36:01Z</time></trkpt>
</trkseg>
</trk>
<trk>
<name>ljuvl14</name>
<cmt>b</cmt>
<desc>Voroux-lez-Liers Sentier n°14 </desc>
<link href="https://chemins.be/vorouxlezliers/sentier/14"/><trkseg>
<trkpt lat="50.683971" lon="5.558054"><time>2026-05-04T15:16:01Z</time></trkpt>
<trkpt lat="50.684814" lon="5.559372"><time>2026-05-04T15:26:01Z</time></trkpt>
</trkseg></trk>
<trk>
<name>ljuvl14</name>
<cmt>d</cmt>
<desc>Voroux-lez-Liers Sentier n°14 </desc>
<link href="https://chemins.be/vorouxlezliers/sentier/14"/><trkseg>
<trkpt lat="50.684814" lon="5.559372"><time>2026-05-04T15:26:01Z</time></trkpt>
<trkpt lat="50.686302" lon="5.562253"><time>2026-05-04T15:36:01Z</time></trkpt>
<trkpt lat="50.687482" lon="5.563721"><time>2026-05-04T15:46:01Z</time></trkpt>
</trkseg>
</trk>
<trk>
<name>ljuvl15</name>
<cmt>d</cmt>
<desc>Voroux-lez-Liers Sentier n°15 </desc>
<link href="https://chemins.be/vorouxlezliers/sentier/15"/><trkseg>
<trkpt lat="50.686329" lon="5.558717"><time>2026-05-04T15:16:01Z</time></trkpt>
<trkpt lat="50.686008" lon="5.559129"><time>2026-05-04T15:26:01Z</time></trkpt>
<trkpt lat="50.684828" lon="5.559370"><time>2026-05-04T15:36:01Z</time></trkpt>
<trkpt lat="50.683469" lon="5.559730"><time>2026-05-04T15:46:01Z</time></trkpt>
<trkpt lat="50.682405" lon="5.560549"><time>2026-05-04T15:56:01Z</time></trkpt>
</trkseg>
</trk>
<trk>
<name>ljuvl17</name>
<cmt>r</cmt>
<desc>Voroux-lez-Liers Sentier n°17 Allée de la Santé</desc>
<link href="https://chemins.be/vorouxlezliers/sentier/17"/><trkseg>
<trkpt lat="50.689609" lon="5.557191"><time>2026-05-04T15:16:01Z</time></trkpt>
<trkpt lat="50.690270" lon="5.556230"><time>2026-05-04T15:26:01Z</time></trkpt>
</trkseg>
</trk>
<trk>
<name>ljuvl18</name>
<cmt>v</cmt>
<desc>Voroux-lez-Liers Sentier n°18 Pasay de la Haxhe qui Clappe</desc>
<link href="https://chemins.be/vorouxlezliers/sentier/18"/><trkseg>
<trkpt lat="50.690931" lon="5.559112"><time>2026-05-04T15:16:01Z</time></trkpt>
<trkpt lat="50.689989" lon="5.560345"><time>2026-05-04T15:26:01Z</time></trkpt>
</trkseg>
</trk>
<trk>
<name>ljuvl19</name>
<cmt>v</cmt>
<desc>Voroux-lez-Liers Sentier n°19 </desc>
<link href="https://chemins.be/vorouxlezliers/sentier/19"/><trkseg>
<trkpt lat="50.684316" lon="5.534610"><time>2026-05-04T15:16:01Z</time></trkpt>
<trkpt lat="50.684062" lon="5.536113"><time>2026-05-04T15:26:01Z</time></trkpt>
</trkseg></trk>
<trk>
<name>ljuvl19</name>
<cmt>q</cmt>
<desc>Voroux-lez-Liers Sentier n°19 </desc>
<link href="https://chemins.be/vorouxlezliers/sentier/19"/><trkseg>
<trkpt lat="50.684062" lon="5.536113"><time>2026-05-04T15:26:01Z</time></trkpt>
<trkpt lat="50.683616" lon="5.538751"><time>2026-05-04T15:36:01Z</time></trkpt>
<trkpt lat="50.683100" lon="5.539502"><time>2026-05-04T15:46:01Z</time></trkpt>
</trkseg>
</trk>
<trk>
<name>ljuvl2</name>
<cmt>v</cmt>
<desc>Voroux-lez-Liers Chemin n°2 </desc>
<link href="https://chemins.be/vorouxlezliers/chemin/2"/><trkseg>
<trkpt lat="50.686621" lon="5.565663"><time>2026-05-04T15:16:01Z</time></trkpt>
<trkpt lat="50.686104" lon="5.565254"><time>2026-05-04T15:26:01Z</time></trkpt>
<trkpt lat="50.682215" lon="5.564759"><time>2026-05-04T15:36:01Z</time></trkpt>
</trkseg>
</trk>
<trk>
<name>ljuvl21</name>
<cmt>q</cmt>
<desc>Voroux-lez-Liers Sentier n°21 </desc>
<link href="https://chemins.be/vorouxlezliers/sentier/21"/><trkseg>
<trkpt lat="50.688620" lon="5.537797"><time>2026-05-04T15:16:01Z</time></trkpt>
<trkpt lat="50.688404" lon="5.537389"><time>2026-05-04T15:26:01Z</time></trkpt>
<trkpt lat="50.688454" lon="5.537285"><time>2026-05-04T15:36:01Z</time></trkpt>
<trkpt lat="50.687897" lon="5.536095"><time>2026-05-04T15:46:01Z</time></trkpt>
</trkseg>
</trk>
<trk>
<name>ljuvl3</name>
<cmt>d</cmt>
<desc>Voroux-lez-Liers Chemin n°3 </desc>
<link href="https://chemins.be/vorouxlezliers/chemin/3"/><trkseg>
<trkpt lat="50.693736" lon="5.552500"><time>2026-05-04T15:16:01Z</time></trkpt>
<trkpt lat="50.693789" lon="5.555211"><time>2026-05-04T15:26:01Z</time></trkpt>
</trkseg>
</trk>
<trk>
<name>ljuvl5</name>
<cmt>v</cmt>
<desc>Voroux-lez-Liers Chemin n°5 </desc>
<link href="https://chemins.be/vorouxlezliers/chemin/5"/><trkseg>
<trkpt lat="50.691832" lon="5.547963"><time>2026-05-04T15:16:01Z</time></trkpt>
<trkpt lat="50.693039" lon="5.547216"><time>2026-05-04T15:26:01Z</time></trkpt>
</trkseg>
</trk>
<trk>
<name>ljuvl9</name>
<cmt>v</cmt>
<desc>Voroux-lez-Liers Chemin n°9 Ruelle du Bois</desc>
<link href="https://chemins.be/vorouxlezliers/chemin/9"/><trkseg>
<trkpt lat="50.685673" lon="5.557261"><time>2026-05-04T15:16:01Z</time></trkpt>
<trkpt lat="50.685927" lon="5.557847"><time>2026-05-04T15:26:01Z</time></trkpt>
<trkpt lat="50.686323" lon="5.558706"><time>2026-05-04T15:36:01Z</time></trkpt>
</trkseg>
</trk>
<trk>
<name>ljuvli1</name>
<cmt>v</cmt>
<desc>Voroux-lez-Liers Sentier n°i1 </desc>
<link href="https://chemins.be/vorouxlezliers/sentier/i1"/><trkseg>
<trkpt lat="50.689870" lon="5.555018"><time>2026-05-04T15:16:01Z</time></trkpt>
<trkpt lat="50.690047" lon="5.555705"><time>2026-05-04T15:26:01Z</time></trkpt>
<trkpt lat="50.690261" lon="5.556263"><time>2026-05-04T15:36:01Z</time></trkpt>
</trkseg>
</trk>
<trk>
<name>ljuvli2</name>
<cmt>q</cmt>
<desc>Voroux-lez-Liers Sentier n°i2 </desc>
<link href="https://chemins.be/vorouxlezliers/sentier/i2"/><trkseg>
<trkpt lat="50.689993" lon="5.560373"><time>2026-05-04T15:16:01Z</time></trkpt>
<trkpt lat="50.689204" lon="5.561437"><time>2026-05-04T15:26:01Z</time></trkpt>
</trkseg>
</trk>
<trk>
<name>ljuvli3</name>
<cmt>v</cmt>
<desc>Voroux-lez-Liers Chemin n°i3 </desc>
<link href="https://chemins.be/vorouxlezliers/chemin/i3"/><trkseg>
<trkpt lat="50.693046" lon="5.547209"><time>2026-05-04T15:16:01Z</time></trkpt>
<trkpt lat="50.693658" lon="5.546325"><time>2026-05-04T15:26:01Z</time></trkpt>
</trkseg>
</trk>
<trk>
<name>ljuvli4</name>
<cmt>v</cmt>
<desc>Voroux-lez-Liers Chemin n°i4 Ancienne Route Militaire</desc>
<link href="https://chemins.be/vorouxlezliers/chemin/i4"/><trkseg>
<trkpt lat="50.695240" lon="5.551673"><time>2026-05-04T15:16:01Z</time></trkpt>
<trkpt lat="50.693663" lon="5.546368"><time>2026-05-04T15:26:01Z</time></trkpt>
<trkpt lat="50.693533" lon="5.545871"><time>2026-05-04T15:36:01Z</time></trkpt>
<trkpt lat="50.693968" lon="5.540807"><time>2026-05-04T15:46:01Z</time></trkpt>
<trkpt lat="50.693891" lon="5.540017"><time>2026-05-04T15:56:01Z</time></trkpt>
<trkpt lat="50.692924" lon="5.538832"><time>2026-05-04T16:06:01Z</time></trkpt>
</trkseg>
</trk>
<trk>
<name>ljuvli5</name>
<cmt>v</cmt>
<desc>Voroux-lez-Liers Chemin n°i5 </desc>
<link href="https://chemins.be/vorouxlezliers/chemin/i5"/><trkseg>
<trkpt lat="50.687864" lon="5.555307"><time>2026-05-04T15:16:01Z</time></trkpt>
<trkpt lat="50.688065" lon="5.555778"><time>2026-05-04T15:26:01Z</time></trkpt>
</trkseg>
</trk>
<trk>
<name>ljuvlL31</name>
<cmt>v</cmt>
<desc>Voroux-lez-Liers Chemin n°L31 RAVeL Ligne 31</desc>
<link href="https://chemins.be/vorouxlezliers/chemin/L31"/><trkseg>
<trkpt lat="50.685622" lon="5.547873"><time>2026-05-04T15:16:01Z</time></trkpt>
<trkpt lat="50.687925" lon="5.548949"><time>2026-05-04T15:26:01Z</time></trkpt>
<trkpt lat="50.689208" lon="5.549944"><time>2026-05-04T15:36:01Z</time></trkpt>
<trkpt lat="50.692254" lon="5.553465"><time>2026-05-04T15:46:01Z</time></trkpt>
<trkpt lat="50.693767" lon="5.555242"><time>2026-05-04T15:56:01Z</time></trkpt>
</trkseg>
</trk>
</gpx>